sensor_id;sensor_type;location;lat;lon;timestamp;temperature;humidity
68276;DHT22;55106;51.438;-0.098;2022-08-01T00:01:08;19.49;78.47
68276;DHT22;55106;51.438;-0.098;2022-08-01T00:03:33;19.46;78.55
68276;DHT22;55106;51.438;-0.098;2022-08-01T00:05:59;19.35;78.79
68276;DHT22;55106;51.438;-0.098;2022-08-01T00:08:24;19.33;78.85
68276;DHT22;55106;51.438;-0.098;2022-08-01T00:10:50;19.30;79.02
68276;DHT22;55106;51.438;-0.098;2022-08-01T00:13:15;19.28;78.99
68276;DHT22;55106;51.438;-0.098;2022-08-01T00:15:41;19.29;79.00
68276;DHT22;55106;51.438;-0.098;2022-08-01T00:18:06;19.25;79.07
68276;DHT22;55106;51.438;-0.098;2022-08-01T00:20:31;19.19;79.10
68276;DHT22;55106;51.438;-0.098;2022-08-01T00:22:57;19.18;79.14
68276;DHT22;55106;51.438;-0.098;2022-08-01T00:25:23;19.18;79.16
68276;DHT22;55106;51.438;-0.098;2022-08-01T00:27:48;19.15;79.02
68276;DHT22;55106;51.438;-0.098;2022-08-01T00:30:13;19.11;78.95
68276;DHT22;55106;51.438;-0.098;2022-08-01T00:32:39;19.05;78.90
68276;DHT22;55106;51.438;-0.098;2022-08-01T00:35:05;19.01;79.07
68276;DHT22;55106;51.438;-0.098;2022-08-01T00:37:31;18.95;79.14
68276;DHT22;55106;51.438;-0.098;2022-08-01T00:39:56;18.88;79.23
68276;DHT22;55106;51.438;-0.098;2022-08-01T00:42:22;18.87;79.31
68276;DHT22;55106;51.438;-0.098;2022-08-01T00:44:47;18.84;79.33
68276;DHT22;55106;51.438;-0.098;2022-08-01T00:47:13;18.83;79.25
68276;DHT22;55106;51.438;-0.098;2022-08-01T00:49:38;18.84;79.37
68276;DHT22;55106;51.438;-0.098;2022-08-01T00:52:05;18.87;79.33
68276;DHT22;55106;51.438;-0.098;2022-08-01T00:54:31;18.88;79.28
68276;DHT22;55106;51.438;-0.098;2022-08-01T00:56:57;18.89;79.13
68276;DHT22;55106;51.438;-0.098;2022-08-01T00:59:23;18.91;79.03
68276;DHT22;55106;51.438;-0.098;2022-08-01T01:01:49;18.87;78.98
68276;DHT22;55106;51.438;-0.098;2022-08-01T01:04:15;18.87;78.87
68276;DHT22;55106;51.438;-0.098;2022-08-01T01:14:38;18.75;79.22
68276;DHT22;55106;51.438;-0.098;2022-08-01T01:17:06;18.75;79.33
68276;DHT22;55106;51.438;-0.098;2022-08-01T01:19:36;18.78;79.32
68276;DHT22;55106;51.438;-0.098;2022-08-01T01:22:08;18.78;79.19
68276;DHT22;55106;51.438;-0.098;2022-08-01T01:25:08;18.87;78.97
68276;DHT22;55106;51.438;-0.098;2022-08-01T01:30:29;18.94;79.04
68276;DHT22;55106;51.438;-0.098;2022-08-01T01:32:59;18.92;78.71
68276;DHT22;55106;51.438;-0.098;2022-08-01T01:35:29;18.89;78.71
68276;DHT22;55106;51.438;-0.098;2022-08-01T01:38:02;18.87;78.66
68276;DHT22;55106;51.438;-0.098;2022-08-01T01:40:30;18.89;78.43
68276;DHT22;55106;51.438;-0.098;2022-08-01T01:42:56;18.84;78.37
68276;DHT22;55106;51.438;-0.098;2022-08-01T01:45:26;18.85;78.34
68276;DHT22;55106;51.438;-0.098;2022-08-01T01:47:52;18.84;78.34
68276;DHT22;55106;51.438;-0.098;2022-08-01T01:50:20;18.84;78.40
68276;DHT22;55106;51.438;-0.098;2022-08-01T01:52:46;18.83;78.22
68276;DHT22;55106;51.438;-0.098;2022-08-01T01:55:13;18.83;78.16
68276;DHT22;55106;51.438;-0.098;2022-08-01T01:57:41;18.81;78.09
68276;DHT22;55106;51.438;-0.098;2022-08-01T02:00:09;18.81;78.07
68276;DHT22;55106;51.438;-0.098;2022-08-01T02:02:36;18.77;78.19
68276;DHT22;55106;51.438;-0.098;2022-08-01T02:05:04;18.74;78.26
68276;DHT22;55106;51.438;-0.098;2022-08-01T02:07:30;18.71;78.40
68276;DHT22;55106;51.438;-0.098;2022-08-01T02:09:58;18.64;78.61
68276;DHT22;55106;51.438;-0.098;2022-08-01T02:12:25;18.59;78.66
68276;DHT22;55106;51.438;-0.098;2022-08-01T02:14:53;18.56;78.85
68276;DHT22;55106;51.438;-0.098;2022-08-01T02:17:20;18.50;79.00
68276;DHT22;55106;51.438;-0.098;2022-08-01T02:19:46;18.53;79.01
68276;DHT22;55106;51.438;-0.098;2022-08-01T02:22:19;18.50;79.12
68276;DHT22;55106;51.438;-0.098;2022-08-01T02:25:01;18.50;79.20
68276;DHT22;55106;51.438;-0.098;2022-08-01T02:27:37;18.51;79.13
68276;DHT22;55106;51.438;-0.098;2022-08-01T02:30:07;18.46;79.42
68276;DHT22;55106;51.438;-0.098;2022-08-01T02:32:41;18.40;79.61
68276;DHT22;55106;51.438;-0.098;2022-08-01T02:35:12;18.37;79.69
68276;DHT22;55106;51.438;-0.098;2022-08-01T02:37:41;18.40;80.12
68276;DHT22;55106;51.438;-0.098;2022-08-01T02:40:08;18.40;80.15
68276;DHT22;55106;51.438;-0.098;2022-08-01T02:42:34;18.41;80.19
68276;DHT22;55106;51.438;-0.098;2022-08-01T02:45:04;18.40;80.16
68276;DHT22;55106;51.438;-0.098;2022-08-01T02:47:30;18.32;80.27
68276;DHT22;55106;51.438;-0.098;2022-08-01T02:49:58;18.29;80.38
68276;DHT22;55106;51.438;-0.098;2022-08-01T02:52:25;18.26;80.49
68276;DHT22;55106;51.438;-0.098;2022-08-01T02:54:53;18.22;80.49
68276;DHT22;55106;51.438;-0.098;2022-08-01T02:57:20;18.22;80.49
68276;DHT22;55106;51.438;-0.098;2022-08-01T02:59:47;18.16;80.75
68276;DHT22;55106;51.438;-0.098;2022-08-01T03:02:15;18.10;80.82
68276;DHT22;55106;51.438;-0.098;2022-08-01T03:04:42;18.08;80.80
68276;DHT22;55106;51.438;-0.098;2022-08-01T03:07:10;18.01;81.01
68276;DHT22;55106;51.438;-0.098;2022-08-01T03:09:39;17.94;81.15
68276;DHT22;55106;51.438;-0.098;2022-08-01T03:12:11;17.86;81.49
68276;DHT22;55106;51.438;-0.098;2022-08-01T03:14:41;17.81;81.57
68276;DHT22;55106;51.438;-0.098;2022-08-01T03:17:08;17.78;81.75
68276;DHT22;55106;51.438;-0.098;2022-08-01T03:19:35;17.71;81.90
68276;DHT22;55106;51.438;-0.098;2022-08-01T03:22:09;17.65;82.15
68276;DHT22;55106;51.438;-0.098;2022-08-01T03:24:38;17.60;82.39
68276;DHT22;55106;51.438;-0.098;2022-08-01T03:27:05;17.55;82.48
68276;DHT22;55106;51.438;-0.098;2022-08-01T03:29:32;17.50;82.58
68276;DHT22;55106;51.438;-0.098;2022-08-01T03:32:00;17.47;82.70
68276;DHT22;55106;51.438;-0.098;2022-08-01T03:34:27;17.48;82.65
68276;DHT22;55106;51.438;-0.098;2022-08-01T03:36:56;17.48;82.80
68276;DHT22;55106;51.438;-0.098;2022-08-01T03:39:29;17.46;82.78
68276;DHT22;55106;51.438;-0.098;2022-08-01T03:41:59;17.43;82.97
68276;DHT22;55106;51.438;-0.098;2022-08-01T03:44:27;17.38;83.15
68276;DHT22;55106;51.438;-0.098;2022-08-01T03:47:03;17.38;83.18
68276;DHT22;55106;51.438;-0.098;2022-08-01T03:49:31;17.40;83.20
68276;DHT22;55106;51.438;-0.098;2022-08-01T03:52:01;17.40;83.27
68276;DHT22;55106;51.438;-0.098;2022-08-01T03:54:30;17.46;83.08
68276;DHT22;55106;51.438;-0.098;2022-08-01T03:56:59;17.43;83.20
68276;DHT22;55106;51.438;-0.098;2022-08-01T03:59:26;17.46;83.03
68276;DHT22;55106;51.438;-0.098;2022-08-01T04:01:52;17.47;83.00
68276;DHT22;55106;51.438;-0.098;2022-08-01T04:04:18;17.50;83.10
68276;DHT22;55106;51.438;-0.098;2022-08-01T04:06:43;17.48;83.05
68276;DHT22;55106;51.438;-0.098;2022-08-01T04:09:11;17.51;83.06
68276;DHT22;55106;51.438;-0.098;2022-08-01T04:11:37;17.50;83.05
68276;DHT22;55106;51.438;-0.098;2022-08-01T04:14:03;17.43;83.31
68276;DHT22;55106;51.438;-0.098;2022-08-01T04:16:28;17.43;83.31
68276;DHT22;55106;51.438;-0.098;2022-08-01T04:18:54;17.31;83.76
68276;DHT22;55106;51.438;-0.098;2022-08-01T04:21:22;17.30;83.74
68276;DHT22;55106;51.438;-0.098;2022-08-01T04:23:48;17.27;83.95
68276;DHT22;55106;51.438;-0.098;2022-08-01T04:26:15;17.26;83.85
68276;DHT22;55106;51.438;-0.098;2022-08-01T04:28:42;17.23;84.09
68276;DHT22;55106;51.438;-0.098;2022-08-01T04:31:10;17.28;83.91
68276;DHT22;55106;51.438;-0.098;2022-08-01T04:33:39;17.26;83.87
68276;DHT22;55106;51.438;-0.098;2022-08-01T04:36:06;17.26;83.92
68276;DHT22;55106;51.438;-0.098;2022-08-01T04:38:34;17.27;83.81
68276;DHT22;55106;51.438;-0.098;2022-08-01T04:41:02;17.30;83.92
68276;DHT22;55106;51.438;-0.098;2022-08-01T04:43:27;17.28;83.88
68276;DHT22;55106;51.438;-0.098;2022-08-01T04:45:54;17.30;83.84
68276;DHT22;55106;51.438;-0.098;2022-08-01T04:48:20;17.31;83.82
68276;DHT22;55106;51.438;-0.098;2022-08-01T04:50:46;17.31;83.82
68276;DHT22;55106;51.438;-0.098;2022-08-01T04:53:16;17.34;83.84
68276;DHT22;55106;51.438;-0.098;2022-08-01T04:55:47;17.34;83.80
68276;DHT22;55106;51.438;-0.098;2022-08-01T04:58:14;17.40;83.75
68276;DHT22;55106;51.438;-0.098;2022-08-01T05:00:40;17.41;83.65
68276;DHT22;55106;51.438;-0.098;2022-08-01T05:03:06;17.44;83.57
68276;DHT22;55106;51.438;-0.098;2022-08-01T05:05:32;17.51;83.39
68276;DHT22;55106;51.438;-0.098;2022-08-01T05:07:57;17.55;83.30
68276;DHT22;55106;51.438;-0.098;2022-08-01T05:10:23;17.55;83.33
68276;DHT22;55106;51.438;-0.098;2022-08-01T05:12:48;17.58;83.29
68276;DHT22;55106;51.438;-0.098;2022-08-01T05:15:14;17.63;83.23
68276;DHT22;55106;51.438;-0.098;2022-08-01T05:17:39;17.70;83.12
68276;DHT22;55106;51.438;-0.098;2022-08-01T05:20:05;17.78;82.94
68276;DHT22;55106;51.438;-0.098;2022-08-01T05:22:33;17.79;82.75
68276;DHT22;55106;51.438;-0.098;2022-08-01T05:24:59;17.88;82.62
68276;DHT22;55106;51.438;-0.098;2022-08-01T05:27:25;17.92;82.44
68276;DHT22;55106;51.438;-0.098;2022-08-01T05:29:50;17.89;82.45
68276;DHT22;55106;51.438;-0.098;2022-08-01T05:32:16;17.94;82.36
68276;DHT22;55106;51.438;-0.098;2022-08-01T05:34:42;17.94;82.35
68276;DHT22;55106;51.438;-0.098;2022-08-01T05:37:07;18.02;82.17
68276;DHT22;55106;51.438;-0.098;2022-08-01T05:39:33;18.03;82.12
68276;DHT22;55106;51.438;-0.098;2022-08-01T05:41:58;18.09;81.91
68276;DHT22;55106;51.438;-0.098;2022-08-01T05:44:24;18.16;81.82
68276;DHT22;55106;51.438;-0.098;2022-08-01T05:46:50;18.28;81.56
68276;DHT22;55106;51.438;-0.098;2022-08-01T05:49:16;18.37;81.21
68276;DHT22;55106;51.438;-0.098;2022-08-01T05:51:41;18.49;80.91
68276;DHT22;55106;51.438;-0.098;2022-08-01T05:54:06;18.51;80.78
68276;DHT22;55106;51.438;-0.098;2022-08-01T05:56:32;18.41;80.94
68276;DHT22;55106;51.438;-0.098;2022-08-01T05:58:57;18.43;81.04
68276;DHT22;55106;51.438;-0.098;2022-08-01T06:01:23;18.51;80.87
68276;DHT22;55106;51.438;-0.098;2022-08-01T06:03:48;18.61;80.64
68276;DHT22;55106;51.438;-0.098;2022-08-01T06:06:14;18.74;80.13
68276;DHT22;55106;51.438;-0.098;2022-08-01T06:08:40;18.83;79.97
68276;DHT22;55106;51.438;-0.098;2022-08-01T06:11:06;18.99;79.80
68276;DHT22;55106;51.438;-0.098;2022-08-01T06:13:31;19.15;79.31
68276;DHT22;55106;51.438;-0.098;2022-08-01T06:16:05;19.19;78.92
68276;DHT22;55106;51.438;-0.098;2022-08-01T06:18:31;19.09;79.02
68276;DHT22;55106;51.438;-0.098;2022-08-01T06:20:56;19.18;78.96
68276;DHT22;55106;51.438;-0.098;2022-08-01T06:23:22;19.19;78.82
68276;DHT22;55106;51.438;-0.098;2022-08-01T06:25:48;19.12;79.11
68276;DHT22;55106;51.438;-0.098;2022-08-01T06:28:13;19.08;79.22
68276;DHT22;55106;51.438;-0.098;2022-08-01T06:30:39;19.07;79.47
68276;DHT22;55106;51.438;-0.098;2022-08-01T06:33:05;19.15;79.35
68276;DHT22;55106;51.438;-0.098;2022-08-01T06:35:30;19.20;79.19
68276;DHT22;55106;51.438;-0.098;2022-08-01T06:37:57;19.26;78.91
68276;DHT22;55106;51.438;-0.098;2022-08-01T06:40:23;19.23;78.91
68276;DHT22;55106;51.438;-0.098;2022-08-01T06:42:51;19.23;78.97
68276;DHT22;55106;51.438;-0.098;2022-08-01T06:45:17;19.18;79.31
68276;DHT22;55106;51.438;-0.098;2022-08-01T06:47:44;19.16;79.29
68276;DHT22;55106;51.438;-0.098;2022-08-01T06:50:10;19.29;79.02
68276;DHT22;55106;51.438;-0.098;2022-08-01T06:52:36;19.33;78.90
68276;DHT22;55106;51.438;-0.098;2022-08-01T06:55:02;19.36;78.65
68276;DHT22;55106;51.438;-0.098;2022-08-01T06:57:28;19.45;78.51
68276;DHT22;55106;51.438;-0.098;2022-08-01T06:59:54;19.50;78.43
68276;DHT22;55106;51.438;-0.098;2022-08-01T07:02:20;19.37;78.61
68276;DHT22;55106;51.438;-0.098;2022-08-01T07:04:45;19.33;78.95
68276;DHT22;55106;51.438;-0.098;2022-08-01T07:07:11;19.32;78.77
68276;DHT22;55106;51.438;-0.098;2022-08-01T07:09:36;19.42;78.74
68276;DHT22;55106;51.438;-0.098;2022-08-01T07:12:03;19.46;78.57
68276;DHT22;55106;51.438;-0.098;2022-08-01T07:14:28;19.43;78.61
68276;DHT22;55106;51.438;-0.098;2022-08-01T07:16:53;19.43;78.61
68276;DHT22;55106;51.438;-0.098;2022-08-01T07:19:19;19.55;78.16
68276;DHT22;55106;51.438;-0.098;2022-08-01T07:21:44;19.69;77.92
68276;DHT22;55106;51.438;-0.098;2022-08-01T07:24:12;19.71;77.63
68276;DHT22;55106;51.438;-0.098;2022-08-01T07:26:38;19.71;77.59
68276;DHT22;55106;51.438;-0.098;2022-08-01T07:29:04;20.07;76.96
68276;DHT22;55106;51.438;-0.098;2022-08-01T07:31:29;20.31;76.34
68276;DHT22;55106;51.438;-0.098;2022-08-01T07:33:54;20.32;75.98
68276;DHT22;55106;51.438;-0.098;2022-08-01T07:36:20;20.25;76.05
68276;DHT22;55106;51.438;-0.098;2022-08-01T07:38:46;20.53;75.70
68276;DHT22;55106;51.438;-0.098;2022-08-01T07:41:11;20.52;75.57
68276;DHT22;55106;51.438;-0.098;2022-08-01T07:43:37;20.41;75.64
68276;DHT22;55106;51.438;-0.098;2022-08-01T07:46:03;20.59;75.40
68276;DHT22;55106;51.438;-0.098;2022-08-01T07:48:29;20.72;75.41
68276;DHT22;55106;51.438;-0.098;2022-08-01T07:50:55;20.70;74.93
68276;DHT22;55106;51.438;-0.098;2022-08-01T07:53:21;20.89;74.35
68276;DHT22;55106;51.438;-0.098;2022-08-01T07:55:46;21.01;74.13
68276;DHT22;55106;51.438;-0.098;2022-08-01T07:58:13;21.27;73.74
68276;DHT22;55106;51.438;-0.098;2022-08-01T08:00:38;21.55;72.21
68276;DHT22;55106;51.438;-0.098;2022-08-01T08:03:03;22.13;70.74
68276;DHT22;55106;51.438;-0.098;2022-08-01T08:05:29;22.14;70.68
68276;DHT22;55106;51.438;-0.098;2022-08-01T08:07:54;22.03;70.58
68276;DHT22;55106;51.438;-0.098;2022-08-01T08:10:20;22.12;70.66
68276;DHT22;55106;51.438;-0.098;2022-08-01T08:12:46;22.18;69.92
68276;DHT22;55106;51.438;-0.098;2022-08-01T08:15:12;22.24;69.92
68276;DHT22;55106;51.438;-0.098;2022-08-01T08:17:38;22.62;69.26
68276;DHT22;55106;51.438;-0.098;2022-08-01T08:20:06;22.84;68.02
68276;DHT22;55106;51.438;-0.098;2022-08-01T08:22:32;22.82;68.38
68276;DHT22;55106;51.438;-0.098;2022-08-01T08:24:57;22.79;68.13
68276;DHT22;55106;51.438;-0.098;2022-08-01T08:27:22;22.53;68.61
68276;DHT22;55106;51.438;-0.098;2022-08-01T08:29:48;22.32;68.44
68276;DHT22;55106;51.438;-0.098;2022-08-01T08:32:13;22.44;68.16
68276;DHT22;55106;51.438;-0.098;2022-08-01T08:34:39;22.55;68.85
68276;DHT22;55106;51.438;-0.098;2022-08-01T08:37:04;22.51;68.66
68276;DHT22;55106;51.438;-0.098;2022-08-01T08:39:30;22.64;68.01
68276;DHT22;55106;51.438;-0.098;2022-08-01T08:41:59;22.51;67.14
68276;DHT22;55106;51.438;-0.098;2022-08-01T08:44:27;22.43;68.19
68276;DHT22;55106;51.438;-0.098;2022-08-01T08:46:53;22.47;68.45
68276;DHT22;55106;51.438;-0.098;2022-08-01T08:49:26;22.57;67.73
68276;DHT22;55106;51.438;-0.098;2022-08-01T08:51:53;22.60;67.72
68276;DHT22;55106;51.438;-0.098;2022-08-01T08:54:23;22.75;68.03
68276;DHT22;55106;51.438;-0.098;2022-08-01T08:56:51;23.03;66.46
68276;DHT22;55106;51.438;-0.098;2022-08-01T08:59:17;23.23;65.94
68276;DHT22;55106;51.438;-0.098;2022-08-01T09:01:43;23.13;65.40
68276;DHT22;55106;51.438;-0.098;2022-08-01T09:04:09;23.09;65.76
68276;DHT22;55106;51.438;-0.098;2022-08-01T09:06:35;23.22;65.61
68276;DHT22;55106;51.438;-0.098;2022-08-01T09:09:00;23.10;65.81
68276;DHT22;55106;51.438;-0.098;2022-08-01T09:11:26;22.94;65.86
68276;DHT22;55106;51.438;-0.098;2022-08-01T09:14:15;23.40;64.49
68276;DHT22;55106;51.438;-0.098;2022-08-01T09:17:08;23.19;63.93
68276;DHT22;55106;51.438;-0.098;2022-08-01T09:22:11;23.30;64.41
68276;DHT22;55106;51.438;-0.098;2022-08-01T09:24:38;23.24;64.32
68276;DHT22;55106;51.438;-0.098;2022-08-01T09:27:20;23.30;64.03
68276;DHT22;55106;51.438;-0.098;2022-08-01T09:29:48;23.50;63.07
68276;DHT22;55106;51.438;-0.098;2022-08-01T09:32:15;24.22;61.59
68276;DHT22;55106;51.438;-0.098;2022-08-01T09:34:40;25.10;59.72
68276;DHT22;55106;51.438;-0.098;2022-08-01T09:37:06;25.25;58.31
68276;DHT22;55106;51.438;-0.098;2022-08-01T09:39:34;25.28;57.88
68276;DHT22;55106;51.438;-0.098;2022-08-01T09:42:22;25.37;57.27
68276;DHT22;55106;51.438;-0.098;2022-08-01T09:44:48;25.58;57.19
68276;DHT22;55106;51.438;-0.098;2022-08-01T09:47:44;24.90;57.13
68276;DHT22;55106;51.438;-0.098;2022-08-01T09:50:10;25.10;56.21
68276;DHT22;55106;51.438;-0.098;2022-08-01T09:52:35;25.07;56.55
68276;DHT22;55106;51.438;-0.098;2022-08-01T09:55:03;25.06;57.10
68276;DHT22;55106;51.438;-0.098;2022-08-01T09:57:29;25.04;57.71
68276;DHT22;55106;51.438;-0.098;2022-08-01T09:59:57;25.00;57.61
68276;DHT22;55106;51.438;-0.098;2022-08-01T10:04:53;25.18;57.11
68276;DHT22;55106;51.438;-0.098;2022-08-01T10:07:20;25.83;55.94
68276;DHT22;55106;51.438;-0.098;2022-08-01T10:09:46;25.82;55.45
68276;DHT22;55106;51.438;-0.098;2022-08-01T10:12:15;26.01;55.28
68276;DHT22;55106;51.438;-0.098;2022-08-01T10:14:43;25.86;54.73
68276;DHT22;55106;51.438;-0.098;2022-08-01T10:17:12;25.31;55.80
68276;DHT22;55106;51.438;-0.098;2022-08-01T10:19:39;25.18;56.45
68276;DHT22;55106;51.438;-0.098;2022-08-01T10:22:08;25.10;56.87
68276;DHT22;55106;51.438;-0.098;2022-08-01T10:24:36;24.94;57.29
68276;DHT22;55106;51.438;-0.098;2022-08-01T10:27:04;25.27;56.67
68276;DHT22;55106;51.438;-0.098;2022-08-01T10:29:35;25.41;57.59
68276;DHT22;55106;51.438;-0.098;2022-08-01T10:32:04;25.97;55.09
68276;DHT22;55106;51.438;-0.098;2022-08-01T10:34:30;26.55;53.48
68276;DHT22;55106;51.438;-0.098;2022-08-01T10:36:57;26.73;52.81
68276;DHT22;55106;51.438;-0.098;2022-08-01T10:39:22;26.75;52.91
68276;DHT22;55106;51.438;-0.098;2022-08-01T10:41:49;25.77;55.02
68276;DHT22;55106;51.438;-0.098;2022-08-01T10:44:15;25.52;54.74
68276;DHT22;55106;51.438;-0.098;2022-08-01T10:46:45;25.42;55.58
68276;DHT22;55106;51.438;-0.098;2022-08-01T10:49:14;25.41;56.23
68276;DHT22;55106;51.438;-0.098;2022-08-01T10:51:41;25.31;56.90
68276;DHT22;55106;51.438;-0.098;2022-08-01T10:54:08;25.12;56.98
68276;DHT22;55106;51.438;-0.098;2022-08-01T10:56:50;25.90;55.80
68276;DHT22;55106;51.438;-0.098;2022-08-01T10:59:33;27.95;50.63
68276;DHT22;55106;51.438;-0.098;2022-08-01T11:02:05;27.23;51.48
68276;DHT22;55106;51.438;-0.098;2022-08-01T11:04:51;26.27;52.88
68276;DHT22;55106;51.438;-0.098;2022-08-01T11:07:34;25.90;54.16
68276;DHT22;55106;51.438;-0.098;2022-08-01T11:10:10;25.85;54.59
68276;DHT22;55106;51.438;-0.098;2022-08-01T11:12:39;25.79;55.94
68276;DHT22;55106;51.438;-0.098;2022-08-01T11:17:45;25.93;54.43
68276;DHT22;55106;51.438;-0.098;2022-08-01T11:25:24;28.31;50.02
68276;DHT22;55106;51.438;-0.098;2022-08-01T11:33:10;27.62;51.69
68276;DHT22;55106;51.438;-0.098;2022-08-01T11:35:36;27.81;48.99
68276;DHT22;55106;51.438;-0.098;2022-08-01T11:38:25;27.00;51.16
68276;DHT22;55106;51.438;-0.098;2022-08-01T11:41:26;26.73;52.54
68276;DHT22;55106;51.438;-0.098;2022-08-01T11:49:43;26.52;54.07
68276;DHT22;55106;51.438;-0.098;2022-08-01T11:57:07;27.29;53.22
68276;DHT22;55106;51.438;-0.098;2022-08-01T11:59:42;26.76;53.00
68276;DHT22;55106;51.438;-0.098;2022-08-01T12:02:30;27.50;52.13
68276;DHT22;55106;51.438;-0.098;2022-08-01T12:05:02;27.67;50.67
68276;DHT22;55106;51.438;-0.098;2022-08-01T12:07:30;29.12;47.51
68276;DHT22;55106;51.438;-0.098;2022-08-01T12:09:59;28.74;47.83
68276;DHT22;55106;51.438;-0.098;2022-08-01T12:12:27;27.84;49.43
68276;DHT22;55106;51.438;-0.098;2022-08-01T12:14:54;27.46;49.89
68276;DHT22;55106;51.438;-0.098;2022-08-01T12:17:31;27.07;51.89
68276;DHT22;55106;51.438;-0.098;2022-08-01T12:19:56;26.49;53.31
68276;DHT22;55106;51.438;-0.098;2022-08-01T12:22:23;26.41;54.11
68276;DHT22;55106;51.438;-0.098;2022-08-01T12:24:50;27.36;52.08
68276;DHT22;55106;51.438;-0.098;2022-08-01T12:27:29;27.48;53.40
68276;DHT22;55106;51.438;-0.098;2022-08-01T12:29:57;27.54;52.74
68276;DHT22;55106;51.438;-0.098;2022-08-01T12:32:28;27.02;53.51
68276;DHT22;55106;51.438;-0.098;2022-08-01T12:35:00;26.72;53.14
68276;DHT22;55106;51.438;-0.098;2022-08-01T12:37:26;27.39;52.03
68276;DHT22;55106;51.438;-0.098;2022-08-01T12:39:51;28.16;50.66
68276;DHT22;55106;51.438;-0.098;2022-08-01T12:42:17;28.94;49.63
68276;DHT22;55106;51.438;-0.098;2022-08-01T12:44:45;29.74;46.68
68276;DHT22;55106;51.438;-0.098;2022-08-01T12:47:13;28.95;49.66
68276;DHT22;55106;51.438;-0.098;2022-08-01T12:49:41;27.92;51.00
68276;DHT22;55106;51.438;-0.098;2022-08-01T12:52:08;26.95;52.14
68276;DHT22;55106;51.438;-0.098;2022-08-01T12:57:33;26.92;53.02
68276;DHT22;55106;51.438;-0.098;2022-08-01T13:00:25;27.58;53.09
68276;DHT22;55106;51.438;-0.098;2022-08-01T13:03:11;27.47;51.44
68276;DHT22;55106;51.438;-0.098;2022-08-01T13:05:45;27.75;52.25
68276;DHT22;55106;51.438;-0.098;2022-08-01T13:08:13;27.23;52.10
68276;DHT22;55106;51.438;-0.098;2022-08-01T13:10:39;27.61;51.69
68276;DHT22;55106;51.438;-0.098;2022-08-01T13:13:04;27.68;51.92
68276;DHT22;55106;51.438;-0.098;2022-08-01T13:15:34;27.41;53.18
68276;DHT22;55106;51.438;-0.098;2022-08-01T13:18:24;27.33;52.90
68276;DHT22;55106;51.438;-0.098;2022-08-01T13:20:50;27.64;51.71
68276;DHT22;55106;51.438;-0.098;2022-08-01T13:23:31;27.64;51.22
68276;DHT22;55106;51.438;-0.098;2022-08-01T13:25:57;27.53;51.85
68276;DHT22;55106;51.438;-0.098;2022-08-01T13:28:27;27.41;53.25
68276;DHT22;55106;51.438;-0.098;2022-08-01T13:31:14;27.19;53.74
68276;DHT22;55106;51.438;-0.098;2022-08-01T13:33:44;26.83;53.19
68276;DHT22;55106;51.438;-0.098;2022-08-01T13:36:10;26.88;55.02
68276;DHT22;55106;51.438;-0.098;2022-08-01T13:38:36;26.93;53.17
68276;DHT22;55106;51.438;-0.098;2022-08-01T13:41:20;26.76;53.74
68276;DHT22;55106;51.438;-0.098;2022-08-01T13:43:46;26.92;54.53
68276;DHT22;55106;51.438;-0.098;2022-08-01T13:46:11;26.68;54.96
68276;DHT22;55106;51.438;-0.098;2022-08-01T13:48:37;26.34;55.66
68276;DHT22;55106;51.438;-0.098;2022-08-01T13:51:02;26.27;54.46
68276;DHT22;55106;51.438;-0.098;2022-08-01T13:53:28;26.33;53.51
68276;DHT22;55106;51.438;-0.098;2022-08-01T13:55:53;26.33;53.46
68276;DHT22;55106;51.438;-0.098;2022-08-01T13:58:19;26.35;53.75
68276;DHT22;55106;51.438;-0.098;2022-08-01T14:00:45;26.52;53.17
68276;DHT22;55106;51.438;-0.098;2022-08-01T14:03:12;26.56;52.82
68276;DHT22;55106;51.438;-0.098;2022-08-01T14:05:38;26.45;53.55
68276;DHT22;55106;51.438;-0.098;2022-08-01T14:08:05;26.63;51.53
68276;DHT22;55106;51.438;-0.098;2022-08-01T14:10:30;26.91;51.38
68276;DHT22;55106;51.438;-0.098;2022-08-01T14:12:56;26.81;51.56
68276;DHT22;55106;51.438;-0.098;2022-08-01T14:15:23;27.17;52.19
68276;DHT22;55106;51.438;-0.098;2022-08-01T14:17:49;27.26;50.48
68276;DHT22;55106;51.438;-0.098;2022-08-01T14:20:14;27.06;52.04
68276;DHT22;55106;51.438;-0.098;2022-08-01T14:22:40;26.86;52.38
68276;DHT22;55106;51.438;-0.098;2022-08-01T14:25:06;26.83;52.38
68276;DHT22;55106;51.438;-0.098;2022-08-01T14:27:32;26.62;53.78
68276;DHT22;55106;51.438;-0.098;2022-08-01T14:30:02;26.34;54.09
68276;DHT22;55106;51.438;-0.098;2022-08-01T14:32:27;26.31;54.38
68276;DHT22;55106;51.438;-0.098;2022-08-01T14:34:53;26.33;52.91
68276;DHT22;55106;51.438;-0.098;2022-08-01T14:37:18;26.38;52.89
68276;DHT22;55106;51.438;-0.098;2022-08-01T14:39:44;26.27;53.06
68276;DHT22;55106;51.438;-0.098;2022-08-01T14:42:09;26.31;52.95
68276;DHT22;55106;51.438;-0.098;2022-08-01T14:44:35;26.41;53.97
68276;DHT22;55106;51.438;-0.098;2022-08-01T14:47:00;26.54;51.82
68276;DHT22;55106;51.438;-0.098;2022-08-01T14:49:25;26.62;51.19
68276;DHT22;55106;51.438;-0.098;2022-08-01T14:51:51;26.67;51.86
68276;DHT22;55106;51.438;-0.098;2022-08-01T14:54:16;26.92;52.50
68276;DHT22;55106;51.438;-0.098;2022-08-01T14:56:42;27.24;52.58
68276;DHT22;55106;51.438;-0.098;2022-08-01T14:59:07;27.39;52.11
68276;DHT22;55106;51.438;-0.098;2022-08-01T15:01:32;27.27;50.76
68276;DHT22;55106;51.438;-0.098;2022-08-01T15:03:58;27.13;52.25
68276;DHT22;55106;51.438;-0.098;2022-08-01T15:06:23;26.85;52.04
68276;DHT22;55106;51.438;-0.098;2022-08-01T15:08:49;26.86;52.26
68276;DHT22;55106;51.438;-0.098;2022-08-01T15:11:14;26.76;53.27
68276;DHT22;55106;51.438;-0.098;2022-08-01T15:13:39;26.86;52.93
68276;DHT22;55106;51.438;-0.098;2022-08-01T15:16:05;26.89;51.78
68276;DHT22;55106;51.438;-0.098;2022-08-01T15:18:30;26.81;50.87
68276;DHT22;55106;51.438;-0.098;2022-08-01T15:20:56;26.71;51.28
68276;DHT22;55106;51.438;-0.098;2022-08-01T15:23:22;26.65;51.28
68276;DHT22;55106;51.438;-0.098;2022-08-01T15:25:48;26.92;51.62
68276;DHT22;55106;51.438;-0.098;2022-08-01T15:28:13;27.13;51.87
68276;DHT22;55106;51.438;-0.098;2022-08-01T15:30:39;27.20;51.57
68276;DHT22;55106;51.438;-0.098;2022-08-01T15:33:04;27.36;50.84
68276;DHT22;55106;51.438;-0.098;2022-08-01T15:35:31;27.51;50.36
68276;DHT22;55106;51.438;-0.098;2022-08-01T15:37:56;27.50;50.82
68276;DHT22;55106;51.438;-0.098;2022-08-01T15:40:22;27.50;50.43
68276;DHT22;55106;51.438;-0.098;2022-08-01T15:42:47;27.55;50.72
68276;DHT22;55106;51.438;-0.098;2022-08-01T15:45:13;27.50;51.57
68276;DHT22;55106;51.438;-0.098;2022-08-01T15:47:43;27.26;52.54
68276;DHT22;55106;51.438;-0.098;2022-08-01T15:50:10;27.26;52.42
68276;DHT22;55106;51.438;-0.098;2022-08-01T15:52:38;27.17;52.88
68276;DHT22;55106;51.438;-0.098;2022-08-01T15:55:07;26.91;52.81
68276;DHT22;55106;51.438;-0.098;2022-08-01T15:57:33;26.73;54.03
68276;DHT22;55106;51.438;-0.098;2022-08-01T15:59:58;26.71;53.54
68276;DHT22;55106;51.438;-0.098;2022-08-01T16:02:24;26.76;53.18